sensor_id;sensor_type;location;lat;lon;timestamp;pressure;altitude;pressure_sealevel;temperature;humidity
43217;BME280;60511;42.686;23.300;2023-05-23T00:01:23;94530.38;;;23.38;39.31
43217;BME280;60511;42.686;23.300;2023-05-23T00:03:27;94593.06;;;23.83;39.48
43217;BME280;60511;42.686;23.300;2023-05-23T00:05:27;94576.66;;;23.76;38.95
43217;BME280;60511;42.686;23.300;2023-05-23T00:07:28;94551.78;;;23.66;38.97
43217;BME280;60511;42.686;23.300;2023-05-23T00:09:28;94499.94;;;23.41;39.23
43217;BME280;60511;42.686;23.300;2023-05-23T00:11:30;94537.63;;;23.54;39.63
43217;BME280;60511;42.686;23.300;2023-05-23T00:13:31;94501.06;;;23.21;39.31
43217;BME280;60511;42.686;23.300;2023-05-23T00:15:40;94546.44;;;23.51;39.32
43217;BME280;60511;42.686;23.300;2023-05-23T00:17:41;94585.38;;;23.85;39.17
43217;BME280;60511;42.686;23.300;2023-05-23T00:19:41;94415.91;;;22.69;39.33
43217;BME280;60511;42.686;23.300;2023-05-23T00:21:46;94507.50;;;23.32;39.28
43217;BME280;60511;42.686;23.300;2023-05-23T00:23:50;94519.66;;;23.42;39.35
43217;BME280;60511;42.686;23.300;2023-05-23T00:25:50;94577.75;;;23.71;39.27
43217;BME280;60511;42.686;23.300;2023-05-23T00:27:54;94451.59;;;22.97;39.18
43217;BME280;60511;42.686;23.300;2023-05-23T00:29:55;94556.91;;;23.72;38.94
43217;BME280;60511;42.686;23.300;2023-05-23T00:31:55;94497.38;;;23.29;38.84
43217;BME280;60511;42.686;23.300;2023-05-23T00:33:56;94556.34;;;23.62;39.03
43217;BME280;60511;42.686;23.300;2023-05-23T00:35:56;94583.75;;;23.80;39.00
43217;BME280;60511;42.686;23.300;2023-05-23T00:37:56;94524.97;;;23.38;38.43
43217;BME280;60511;42.686;23.300;2023-05-23T00:39:57;94529.81;;;23.49;39.02
43217;BME280;60511;42.686;23.300;2023-05-23T00:41:57;94458.53;;;22.98;39.19
43217;BME280;60511;42.686;23.300;2023-05-23T00:43:58;94554.34;;;23.59;39.18
43217;BME280;60511;42.686;23.300;2023-05-23T00:45:59;94466.56;;;22.95;38.95
43217;BME280;60511;42.686;23.300;2023-05-23T00:48:00;94479.97;;;23.07;39.27
43217;BME280;60511;42.686;23.300;2023-05-23T00:50:02;94578.94;;;23.74;39.31
43217;BME280;60511;42.686;23.300;2023-05-23T00:52:02;94552.78;;;23.58;39.18
43217;BME280;60511;42.686;23.300;2023-05-23T00:54:03;94579.38;;;23.76;38.84
43217;BME280;60511;42.686;23.300;2023-05-23T00:56:04;94583.56;;;23.73;39.01
43217;BME280;60511;42.686;23.300;2023-05-23T00:58:05;94533.59;;;23.44;39.02
43217;BME280;60511;42.686;23.300;2023-05-23T01:00:12;94582.06;;;23.76;39.12
43217;BME280;60511;42.686;23.300;2023-05-23T01:02:13;94494.03;;;23.16;39.10
43217;BME280;60511;42.686;23.300;2023-05-23T01:04:13;94557.75;;;23.56;39.10
43217;BME280;60511;42.686;23.300;2023-05-23T01:06:15;94518.13;;;23.25;38.98
43217;BME280;60511;42.686;23.300;2023-05-23T01:08:16;94453.97;;;22.83;39.30
43217;BME280;60511;42.686;23.300;2023-05-23T01:10:35;94576.03;;;23.63;39.08
43217;BME280;60511;42.686;23.300;2023-05-23T01:12:44;94495.09;;;23.12;39.00
43217;BME280;60511;42.686;23.300;2023-05-23T01:15:05;94567.16;;;23.62;39.10
43217;BME280;60511;42.686;23.300;2023-05-23T01:17:28;94518.50;;;23.23;39.21
43217;BME280;60511;42.686;23.300;2023-05-23T01:19:59;94420.94;;;22.70;38.89
43217;BME280;60511;42.686;23.300;2023-05-23T01:22:07;94581.59;;;23.70;38.87
43217;BME280;60511;42.686;23.300;2023-05-23T01:24:35;94586.09;;;23.82;38.93
43217;BME280;60511;42.686;23.300;2023-05-23T01:29:16;94468.75;;;23.05;38.48
43217;BME280;60511;42.686;23.300;2023-05-23T01:31:21;94521.22;;;23.43;38.47
43217;BME280;60511;42.686;23.300;2023-05-23T01:33:24;94589.22;;;23.84;38.65
43217;BME280;60511;42.686;23.300;2023-05-23T01:35:26;94552.41;;;23.60;38.66
43217;BME280;60511;42.686;23.300;2023-05-23T01:37:26;94582.44;;;23.74;38.75
43217;BME280;60511;42.686;23.300;2023-05-23T01:39:29;94519.28;;;23.24;38.97
43217;BME280;60511;42.686;23.300;2023-05-23T01:41:30;94580.63;;;23.78;38.34
43217;BME280;60511;42.686;23.300;2023-05-23T01:43:30;94589.41;;;23.75;38.49
43217;BME280;60511;42.686;23.300;2023-05-23T01:45:31;94443.44;;;22.78;38.45
43217;BME280;60511;42.686;23.300;2023-05-23T01:47:31;94489.72;;;23.12;38.19
43217;BME280;60511;42.686;23.300;2023-05-23T01:49:33;94494.03;;;23.16;38.31
43217;BME280;60511;42.686;23.300;2023-05-23T01:51:34;94576.97;;;23.71;38.74
43217;BME280;60511;42.686;23.300;2023-05-23T01:53:35;94477.06;;;23.16;38.65
43217;BME280;60511;42.686;23.300;2023-05-23T01:55:36;94559.00;;;23.78;38.46
43217;BME280;60511;42.686;23.300;2023-05-23T01:57:38;94529.25;;;23.59;38.39
43217;BME280;60511;42.686;23.300;2023-05-23T01:59:39;94529.47;;;23.50;38.42
43217;BME280;60511;42.686;23.300;2023-05-23T02:01:40;94562.31;;;23.72;38.12
43217;BME280;60511;42.686;23.300;2023-05-23T02:03:40;94568.75;;;23.83;38.16
43217;BME280;60511;42.686;23.300;2023-05-23T02:05:42;94521.41;;;23.54;38.32
43217;BME280;60511;42.686;23.300;2023-05-23T02:07:42;94473.50;;;23.12;38.29
43217;BME280;60511;42.686;23.300;2023-05-23T02:09:43;94520.00;;;23.40;38.30
43217;BME280;60511;42.686;23.300;2023-05-23T02:11:43;94405.22;;;22.56;38.73
43217;BME280;60511;42.686;23.300;2023-05-23T02:13:44;94511.59;;;23.26;38.28
43217;BME280;60511;42.686;23.300;2023-05-23T02:15:45;94460.59;;;22.85;38.73
43217;BME280;60511;42.686;23.300;2023-05-23T02:17:45;94514.00;;;23.12;38.52
43217;BME280;60511;42.686;23.300;2023-05-23T02:19:47;94502.13;;;23.16;38.67
43217;BME280;60511;42.686;23.300;2023-05-23T02:21:47;94579.44;;;23.60;38.70
43217;BME280;60511;42.686;23.300;2023-05-23T02:23:48;94542.13;;;23.46;38.55
43217;BME280;60511;42.686;23.300;2023-05-23T02:25:48;94430.94;;;22.70;38.70
43217;BME280;60511;42.686;23.300;2023-05-23T02:27:49;94485.28;;;23.03;38.81
43217;BME280;60511;42.686;23.300;2023-05-23T02:29:49;94391.50;;;22.45;38.74
43217;BME280;60511;42.686;23.300;2023-05-23T02:31:49;94377.44;;;22.36;38.93
43217;BME280;60511;42.686;23.300;2023-05-23T02:33:50;94565.56;;;23.61;38.50
43217;BME280;60511;42.686;23.300;2023-05-23T02:35:51;94477.53;;;23.02;38.64
43217;BME280;60511;42.686;23.300;2023-05-23T02:37:51;94418.94;;;22.67;38.43
43217;BME280;60511;42.686;23.300;2023-05-23T02:39:52;94413.97;;;22.69;38.43
43217;BME280;60511;42.686;23.300;2023-05-23T02:41:52;94401.56;;;22.64;38.34
43217;BME280;60511;42.686;23.300;2023-05-23T02:43:53;94399.72;;;22.69;38.12
43217;BME280;60511;42.686;23.300;2023-05-23T02:45:53;94371.22;;;22.52;38.29
43217;BME280;60511;42.686;23.300;2023-05-23T02:47:54;94456.47;;;23.08;38.38
43217;BME280;60511;42.686;23.300;2023-05-23T02:49:54;94466.25;;;23.16;38.40
43217;BME280;60511;42.686;23.300;2023-05-23T02:51:55;94454.53;;;23.08;38.71
43217;BME280;60511;42.686;23.300;2023-05-23T02:53:55;94533.50;;;23.60;38.28
43217;BME280;60511;42.686;23.300;2023-05-23T02:55:55;94455.81;;;23.14;38.73
43217;BME280;60511;42.686;23.300;2023-05-23T02:57:56;94558.22;;;23.78;38.26
43217;BME280;60511;42.686;23.300;2023-05-23T02:59:57;94452.97;;;23.07;38.55
43217;BME280;60511;42.686;23.300;2023-05-23T03:01:58;94491.63;;;23.31;39.09
43217;BME280;60511;42.686;23.300;2023-05-23T03:03:58;94431.25;;;22.84;38.67
43217;BME280;60511;42.686;23.300;2023-05-23T03:06:00;94474.44;;;23.19;38.83
43217;BME280;60511;42.686;23.300;2023-05-23T03:08:01;94490.94;;;23.34;38.36
43217;BME280;60511;42.686;23.300;2023-05-23T03:10:02;94549.53;;;23.69;38.13
43217;BME280;60511;42.686;23.300;2023-05-23T03:12:03;94549.75;;;23.79;38.83
43217;BME280;60511;42.686;23.300;2023-05-23T03:14:05;94489.44;;;23.36;38.51
43217;BME280;60511;42.686;23.300;2023-05-23T03:16:06;94455.31;;;23.09;39.12
43217;BME280;60511;42.686;23.300;2023-05-23T03:18:06;94497.88;;;23.35;38.38
43217;BME280;60511;42.686;23.300;2023-05-23T03:20:07;94516.66;;;23.47;38.57
43217;BME280;60511;42.686;23.300;2023-05-23T03:22:08;94558.06;;;23.71;38.81
43217;BME280;60511;42.686;23.300;2023-05-23T03:24:09;94440.38;;;22.95;38.61
43217;BME280;60511;42.686;23.300;2023-05-23T03:26:10;94431.97;;;22.81;38.69
43217;BME280;60511;42.686;23.300;2023-05-23T03:28:11;94570.41;;;23.72;38.62
43217;BME280;60511;42.686;23.300;2023-05-23T03:30:11;94407.63;;;22.61;38.45
43217;BME280;60511;42.686;23.300;2023-05-23T03:32:12;94488.75;;;23.04;38.64
43217;BME280;60511;42.686;23.300;2023-05-23T03:34:12;94511.44;;;23.19;38.81
43217;BME280;60511;42.686;23.300;2023-05-23T03:36:13;94470.13;;;22.99;38.75
43217;BME280;60511;42.686;23.300;2023-05-23T03:38:13;94378.16;;;22.33;38.82
43217;BME280;60511;42.686;23.300;2023-05-23T03:40:14;94549.72;;;23.40;38.52
43217;BME280;60511;42.686;23.300;2023-05-23T03:42:14;94538.31;;;23.31;38.57
43217;BME280;60511;42.686;23.300;2023-05-23T03:44:15;94586.41;;;23.61;38.48
43217;BME280;60511;42.686;23.300;2023-05-23T03:46:15;94548.78;;;23.33;38.71
43217;BME280;60511;42.686;23.300;2023-05-23T03:48:16;94418.38;;;22.58;38.55
43217;BME280;60511;42.686;23.300;2023-05-23T03:50:16;94403.41;;;22.44;38.54
43217;BME280;60511;42.686;23.300;2023-05-23T03:52:16;94355.28;;;22.11;38.65
43217;BME280;60511;42.686;23.300;2023-05-23T03:54:17;94533.91;;;23.23;38.90
43217;BME280;60511;42.686;23.300;2023-05-23T03:56:18;94469.03;;;22.84;38.83
43217;BME280;60511;42.686;23.300;2023-05-23T03:58:19;94498.00;;;23.03;38.68
43217;BME280;60511;42.686;23.300;2023-05-23T04:00:20;94495.03;;;23.08;38.36
43217;BME280;60511;42.686;23.300;2023-05-23T04:02:20;94552.53;;;23.47;38.38
43217;BME280;60511;42.686;23.300;2023-05-23T04:04:20;94558.13;;;23.55;38.25
43217;BME280;60511;42.686;23.300;2023-05-23T04:06:22;94587.06;;;23.74;38.60
43217;BME280;60511;42.686;23.300;2023-05-23T04:08:22;94522.84;;;23.28;38.55
43217;BME280;60511;42.686;23.300;2023-05-23T04:10:23;94571.88;;;23.50;38.82
43217;BME280;60511;42.686;23.300;2023-05-23T04:12:25;94595.81;;;23.67;38.58
43217;BME280;60511;42.686;23.300;2023-05-23T04:14:25;94589.19;;;23.64;38.75
43217;BME280;60511;42.686;23.300;2023-05-23T04:16:27;94592.66;;;23.65;38.59
43217;BME280;60511;42.686;23.300;2023-05-23T04:18:32;94563.34;;;23.47;38.45
43217;BME280;60511;42.686;23.300;2023-05-23T04:20:32;94500.41;;;23.08;38.54
43217;BME280;60511;42.686;23.300;2023-05-23T04:22:32;94469.19;;;22.91;38.39
43217;BME280;60511;42.686;23.300;2023-05-23T04:24:33;94455.66;;;22.72;38.13
43217;BME280;60511;42.686;23.300;2023-05-23T04:26:33;94493.03;;;23.05;38.53
43217;BME280;60511;42.686;23.300;2023-05-23T04:28:35;94549.84;;;23.47;38.77
43217;BME280;60511;42.686;23.300;2023-05-23T04:30:36;94507.63;;;23.20;38.29
43217;BME280;60511;42.686;23.300;2023-05-23T04:32:37;94594.03;;;23.75;38.51
43217;BME280;60511;42.686;23.300;2023-05-23T04:34:37;94487.38;;;22.94;38.56
43217;BME280;60511;42.686;23.300;2023-05-23T04:36:40;94591.97;;;23.68;38.45
43217;BME280;60511;42.686;23.300;2023-05-23T04:38:43;94592.41;;;23.70;38.60
43217;BME280;60511;42.686;23.300;2023-05-23T04:40:43;94581.34;;;23.59;38.44
43217;BME280;60511;42.686;23.300;2023-05-23T04:42:44;94502.34;;;23.08;38.48
43217;BME280;60511;42.686;23.300;2023-05-23T04:44:45;94484.97;;;22.89;38.32
43217;BME280;60511;42.686;23.300;2023-05-23T04:46:45;94429.72;;;22.48;38.40
43217;BME280;60511;42.686;23.300;2023-05-23T04:48:46;94543.66;;;23.27;38.41
43217;BME280;60511;42.686;23.300;2023-05-23T04:50:47;94515.41;;;23.05;38.39
43217;BME280;60511;42.686;23.300;2023-05-23T04:52:50;94608.09;;;23.64;38.94
43217;BME280;60511;42.686;23.300;2023-05-23T04:54:50;94616.00;;;23.73;38.92
43217;BME280;60511;42.686;23.300;2023-05-23T04:56:53;94608.00;;;23.77;38.53
43217;BME280;60511;42.686;23.300;2023-05-23T04:58:54;94611.81;;;23.76;38.91
43217;BME280;60511;42.686;23.300;2023-05-23T05:00:55;94610.59;;;23.73;38.79
43217;BME280;60511;42.686;23.300;2023-05-23T05:02:55;94604.84;;;23.75;38.81
43217;BME280;60511;42.686;23.300;2023-05-23T05:04:56;94545.72;;;23.34;38.56
43217;BME280;60511;42.686;23.300;2023-05-23T05:06:56;94612.25;;;23.78;38.33
43217;BME280;60511;42.686;23.300;2023-05-23T05:08:56;94611.03;;;23.75;38.57
43217;BME280;60511;42.686;23.300;2023-05-23T05:10:57;94386.06;;;22.26;38.64
43217;BME280;60511;42.686;23.300;2023-05-23T05:12:57;94566.25;;;23.39;38.52
43217;BME280;60511;42.686;23.300;2023-05-23T05:14:58;94568.31;;;23.45;38.29
43217;BME280;60511;42.686;23.300;2023-05-23T05:16:58;94593.38;;;23.62;38.08
43217;BME280;60511;42.686;23.300;2023-05-23T05:18:58;94608.19;;;23.68;38.26
43217;BME280;60511;42.686;23.300;2023-05-23T05:20:59;94614.06;;;23.74;38.59
43217;BME280;60511;42.686;23.300;2023-05-23T05:23:00;94461.03;;;22.72;38.95
43217;BME280;60511;42.686;23.300;2023-05-23T05:25:00;94523.50;;;23.05;38.97
43217;BME280;60511;42.686;23.300;2023-05-23T05:27:02;94557.31;;;23.35;38.72
43217;BME280;60511;42.686;23.300;2023-05-23T05:29:04;94433.59;;;22.50;38.46
43217;BME280;60511;42.686;23.300;2023-05-23T05:31:05;94481.75;;;22.83;38.84
43217;BME280;60511;42.686;23.300;2023-05-23T05:33:05;94499.66;;;22.92;39.89
43217;BME280;60511;42.686;23.300;2023-05-23T05:35:07;94627.13;;;23.88;38.91
43217;BME280;60511;42.686;23.300;2023-05-23T05:37:07;94614.69;;;23.83;38.64
43217;BME280;60511;42.686;23.300;2023-05-23T05:39:08;94563.22;;;23.40;38.21
43217;BME280;60511;42.686;23.300;2023-05-23T05:41:08;94583.84;;;23.49;38.44
43217;BME280;60511;42.686;23.300;2023-05-23T05:43:08;94623.06;;;23.78;38.35
43217;BME280;60511;42.686;23.300;2023-05-23T05:45:09;94549.06;;;23.27;38.44
43217;BME280;60511;42.686;23.300;2023-05-23T05:47:10;94537.84;;;23.25;38.41
43217;BME280;60511;42.686;23.300;2023-05-23T05:49:12;94443.44;;;22.58;38.51
43217;BME280;60511;42.686;23.300;2023-05-23T05:51:12;94627.44;;;23.82;38.59
43217;BME280;60511;42.686;23.300;2023-05-23T05:53:13;94629.50;;;23.89;38.38
43217;BME280;60511;42.686;23.300;2023-05-23T05:55:14;94590.63;;;23.58;38.50
43217;BME280;60511;42.686;23.300;2023-05-23T05:57:14;94634.16;;;23.92;38.62
43217;BME280;60511;42.686;23.300;2023-05-23T05:59:15;94632.69;;;23.95;38.76
43217;BME280;60511;42.686;23.300;2023-05-23T06:01:16;94622.31;;;23.97;38.36
43217;BME280;60511;42.686;23.300;2023-05-23T06:03:16;94640.44;;;23.96;38.23
43217;BME280;60511;42.686;23.300;2023-05-23T06:05:17;94506.75;;;23.16;38.47
43217;BME280;60511;42.686;23.300;2023-05-23T06:07:17;94615.97;;;23.89;38.57
43217;BME280;60511;42.686;23.300;2023-05-23T06:09:17;94584.28;;;23.70;38.19
43217;BME280;60511;42.686;23.300;2023-05-23T06:11:18;94554.91;;;23.49;38.19
43217;BME280;60511;42.686;23.300;2023-05-23T06:13:18;94593.25;;;23.74;38.01
43217;BME280;60511;42.686;23.300;2023-05-23T06:15:19;94628.84;;;23.96;37.95
43217;BME280;60511;42.686;23.300;2023-05-23T06:17:19;94504.41;;;23.14;37.86
43217;BME280;60511;42.686;23.300;2023-05-23T06:19:20;94504.41;;;23.14;37.86
43217;BME280;60511;42.686;23.300;2023-05-23T06:21:21;94634.31;;;23.99;38.03
43217;BME280;60511;42.686;23.300;2023-05-23T06:23:23;94586.16;;;23.66;38.02
43217;BME280;60511;42.686;23.300;2023-05-23T06:25:23;94626.91;;;23.96;37.92
43217;BME280;60511;42.686;23.300;2023-05-23T06:27:24;94626.06;;;23.92;37.84
43217;BME280;60511;42.686;23.300;2023-05-23T06:29:25;94628.00;;;23.92;37.68
43217;BME280;60511;42.686;23.300;2023-05-23T06:31:25;94635.09;;;24.00;37.77
43217;BME280;60511;42.686;23.300;2023-05-23T06:33:26;94618.16;;;23.83;37.83
43217;BME280;60511;42.686;23.300;2023-05-23T06:35:27;94630.84;;;23.99;38.04
43217;BME280;60511;42.686;23.300;2023-05-23T06:37:27;94635.44;;;23.98;37.77
43217;BME280;60511;42.686;23.300;2023-05-23T06:39:29;94630.03;;;23.98;37.84
43217;BME280;60511;42.686;23.300;2023-05-23T06:41:29;94629.63;;;23.96;37.95
43217;BME280;60511;42.686;23.300;2023-05-23T06:43:29;94605.72;;;23.79;37.65
43217;BME280;60511;42.686;23.300;2023-05-23T06:45:30;94532.91;;;23.31;37.76
43217;BME280;60511;42.686;23.300;2023-05-23T06:47:30;94623.78;;;23.94;37.83
43217;BME280;60511;42.686;23.300;2023-05-23T06:49:30;94565.28;;;23.47;37.80
43217;BME280;60511;42.686;23.300;2023-05-23T06:51:32;94620.31;;;23.94;37.79
43217;BME280;60511;42.686;23.300;2023-05-23T06:53:32;94597.97;;;23.77;37.92
43217;BME280;60511;42.686;23.300;2023-05-23T06:55:33;94624.94;;;23.93;37.85
43217;BME280;60511;42.686;23.300;2023-05-23T06:57:33;94608.50;;;23.82;37.89
43217;BME280;60511;42.686;23.300;2023-05-23T06:59:33;94615.69;;;23.94;37.67
43217;BME280;60511;42.686;23.300;2023-05-23T07:01:34;94577.16;;;23.62;37.93
43217;BME280;60511;42.686;23.300;2023-05-23T07:03:35;94611.00;;;23.91;37.74
43217;BME280;60511;42.686;23.300;2023-05-23T07:05:37;94578.47;;;23.68;37.96
43217;BME280;60511;42.686;23.300;2023-05-23T07:07:38;94612.91;;;23.91;37.72
43217;BME280;60511;42.686;23.300;2023-05-23T07:09:38;94540.19;;;23.46;37.82
43217;BME280;60511;42.686;23.300;2023-05-23T07:11:39;94605.94;;;23.90;38.07
43217;BME280;60511;42.686;23.300;2023-05-23T07:13:40;94602.09;;;23.91;37.84
43217;BME280;60511;42.686;23.300;2023-05-23T07:15:40;94554.00;;;23.61;37.48
43217;BME280;60511;42.686;23.300;2023-05-23T07:17:40;94567.28;;;23.70;37.83
43217;BME280;60511;42.686;23.300;2023-05-23T07:19:41;94545.88;;;23.61;37.90
43217;BME280;60511;42.686;23.300;2023-05-23T07:21:41;94546.22;;;23.59;37.88
43217;BME280;60511;42.686;23.300;2023-05-23T07:23:42;94594.00;;;23.91;37.68
43217;BME280;60511;42.686;23.300;2023-05-23T07:25:44;94547.31;;;23.55;37.62
43217;BME280;60511;42.686;23.300;2023-05-23T07:27:47;94592.84;;;23.92;37.74
43217;BME280;60511;42.686;23.300;2023-05-23T14:21:09;94362.88;;;24.84;36.46
43217;BME280;60511;42.686;23.300;2023-05-23T14:23:10;94364.03;;;24.83;36.53
43217;BME280;60511;42.686;23.300;2023-05-23T14:25:10;94368.22;;;24.80;36.05
43217;BME280;60511;42.686;23.300;2023-05-23T14:27:11;94259.03;;;24.05;33.71
43217;BME280;60511;42.686;23.300;2023-05-23T14:29:22;94366.28;;;24.77;33.65
43217;BME280;60511;42.686;23.300;2023-05-23T14:31:28;94347.09;;;24.59;34.05
43217;BME280;60511;42.686;23.300;2023-05-23T14:33:42;94320.97;;;24.44;34.81
43217;BME280;60511;42.686;23.300;2023-05-23T14:35:42;94192.38;;;23.63;34.28
43217;BME280;60511;42.686;23.300;2023-05-23T14:37:44;94373.69;;;24.84;34.45
43217;BME280;60511;42.686;23.300;2023-05-23T14:39:45;94364.06;;;24.86;33.45
43217;BME280;60511;42.686;23.300;2023-05-23T14:41:46;94272.06;;;24.26;34.16
43217;BME280;60511;42.686;23.300;2023-05-23T14:43:47;94333.75;;;24.74;34.06
43217;BME280;60511;42.686;23.300;2023-05-23T14:45:47;94237.13;;;24.14;33.99
43217;BME280;60511;42.686;23.300;2023-05-23T14:47:48;94261.06;;;24.45;33.70
43217;BME280;60511;42.686;23.300;2023-05-23T14:49:49;94264.53;;;24.42;32.11
43217;BME280;60511;42.686;23.300;2023-05-23T14:51:50;94255.91;;;24.33;33.15
43217;BME280;60511;42.686;23.300;2023-05-23T14:53:50;94301.22;;;24.70;32.73
43217;BME280;60511;42.686;23.300;2023-05-23T14:55:52;94274.78;;;24.56;30.05
43217;BME280;60511;42.686;23.300;2023-05-23T14:57:52;94286.88;;;24.66;31.50
43217;BME280;60511;42.686;23.300;2023-05-23T14:59:53;94356.66;;;25.14;31.44
43217;BME280;60511;42.686;23.300;2023-05-23T15:01:53;94289.31;;;24.78;31.65
43217;BME280;60511;42.686;23.300;2023-05-23T15:03:54;94352.13;;;25.21;31.55
43217;BME280;60511;42.686;23.300;2023-05-23T15:05:55;94220.78;;;24.37;30.73
43217;BME280;60511;42.686;23.300;2023-05-23T15:07:55;94340.53;;;25.24;31.94
43217;BME280;60511;42.686;23.300;2023-05-23T15:10:00;94247.09;;;24.70;30.45
43217;BME280;60511;42.686;23.300;2023-05-23T15:12:02;94254.53;;;24.77;31.91
43217;BME280;60511;42.686;23.300;2023-05-23T15:14:06;94288.00;;;24.95;31.97
43217;BME280;60511;42.686;23.300;2023-05-23T15:16:06;94322.28;;;25.18;32.34
43217;BME280;60511;42.686;23.300;2023-05-23T15:18:07;94301.22;;;25.04;32.47
43217;BME280;60511;42.686;23.300;2023-05-23T15:20:10;94153.53;;;24.01;30.77
43217;BME280;60511;42.686;23.300;2023-05-23T15:22:11;94337.88;;;25.28;31.30
43217;BME280;60511;42.686;23.300;2023-05-23T15:24:12;94232.31;;;24.60;31.76
43217;BME280;60511;42.686;23.300;2023-05-23T15:26:15;94339.84;;;25.31;30.98
43217;BME280;60511;42.686;23.300;2023-05-23T15:28:15;94269.16;;;24.72;31.21
43217;BME280;60511;42.686;23.300;2023-05-23T15:30:16;94151.66;;;24.05;30.23
43217;BME280;60511;42.686;23.300;2023-05-23T15:32:16;94176.16;;;24.20;30.87
43217;BME280;60511;42.686;23.300;2023-05-23T15:34:17;94293.03;;;24.97;30.61
43217;BME280;60511;42.686;23.300;2023-05-23T15:36:18;94219.00;;;24.48;30.99
43217;BME280;60511;42.686;23.300;2023-05-23T15:38:19;94342.13;;;25.29;31.35
43217;BME280;60511;42.686;23.300;2023-05-23T15:40:19;94153.22;;;24.06;30.88
43217;BME280;60511;42.686;23.300;2023-05-23T15:42:21;94338.34;;;25.34;30.73
43217;BME280;60511;42.686;23.300;2023-05-23T15:44:22;94341.44;;;25.36;30.89
43217;BME280;60511;42.686;23.300;2023-05-23T15:46:22;94341.34;;;25.29;31.03
43217;BME280;60511;42.686;23.300;2023-05-23T15:48:23;94328.31;;;25.38;30.35
43217;BME280;60511;42.686;23.300;2023-05-23T15:50:23;94146.31;;;24.09;30.88
43217;BME280;60511;42.686;23.300;2023-05-23T15:52:24;94320.41;;;25.22;30.86
43217;BME280;60511;42.686;23.300;2023-05-23T15:54:24;94322.75;;;25.27;31.18
43217;BME280;60511;42.686;23.300;2023-05-23T15:56:25;94268.88;;;24.81;30.38
43217;BME280;60511;42.686;23.300;2023-05-23T15:58:25;94316.13;;;25.21;29.21
43217;BME280;60511;42.686;23.300;2023-05-23T16:00:26;94258.00;;;24.77;30.20
43217;BME280;60511;42.686;23.300;2023-05-23T16:02:27;94233.09;;;24.61;29.70
43217;BME280;60511;42.686;23.300;2023-05-23T16:04:27;94265.09;;;24.89;31.10
43217;BME280;60511;42.686;23.300;2023-05-23T16:06:27;94314.47;;;25.13;30.96
43217;BME280;60511;42.686;23.300;2023-05-23T16:08:28;94333.22;;;25.29;30.03
43217;BME280;60511;42.686;23.300;2023-05-23T16:10:28;94307.88;;;25.10;30.65
43217;BME280;60511;42.686;23.300;2023-05-23T16:12:30;94292.59;;;24.91;30.93
43217;BME280;60511;42.686;23.300;2023-05-23T16:14:30;94277.38;;;24.79;30.93
43217;BME280;60511;42.686;23.300;2023-05-23T16:16:31;94319.44;;;25.07;30.12
43217;BME280;60511;42.686;23.300;2023-05-23T16:18:32;94342.84;;;25.22;30.41
43217;BME280;60511;42.686;23.300;2023-05-23T16:20:32;94272.41;;;24.85;30.66
43217;BME280;60511;42.686;23.300;2023-05-23T16:22:36;94271.13;;;24.75;30.30
43217;BME280;60511;42.686;23.300;2023-05-23T16:24:37;94345.19;;;25.24;30.38
43217;BME280;60511;42.686;23.300;2023-05-23T16:26:37;94173.28;;;24.05;30.51
43217;BME280;60511;42.686;23.300;2023-05-23T16:28:38;94311.94;;;24.93;30.12
43217;BME280;60511;42.686;23.300;2023-05-23T16:30:41;94282.19;;;24.63;30.51
43217;BME280;60511;42.686;23.300;2023-05-23T16:32:41;94333.31;;;25.02;30.35
43217;BME280;60511;42.686;23.300;2023-05-23T16:34:42;94277.56;;;24.63;30.40
43217;BME280;60511;42.686;23.300;2023-05-23T16:36:43;94283.34;;;24.62;29.92
43217;BME280;60511;42.686;23.300;2023-05-23T16:38:43;94247.84;;;24.37;30.29
43217;BME280;60511;42.686;23.300;2023-05-23T16:40:44;94321.16;;;24.89;30.46
43217;BME280;60511;42.686;23.300;2023-05-23T16:42:44;94269.31;;;24.53;30.28
43217;BME280;60511;42.686;23.300;2023-05-23T16:44:45;94305.53;;;24.75;29.84
43217;BME280;60511;42.686;23.300;2023-05-23T16:46:45;94328.88;;;24.86;30.39
43217;BME280;60511;42.686;23.300;2023-05-23T16:48:46;94347.19;;;24.97;30.58
43217;BME280;60511;42.686;23.300;2023-05-23T16:50:46;94219.75;;;24.15;30.82
43217;BME280;60511;42.686;23.300;2023-05-23T16:52:47;94299.97;;;24.64;30.61
43217;BME280;60511;42.686;23.300;2023-05-23T16:54:47;94362.78;;;25.07;30.90
43217;BME280;60511;42.686;23.300;2023-05-23T16:56:48;94358.44;;;25.02;30.75
43217;BME280;60511;42.686;23.300;2023-05-23T16:58:49;94249.66;;;24.25;30.94
43217;BME280;60511;42.686;23.300;2023-05-23T17:00:51;94362.31;;;25.01;31.06
43217;BME280;60511;42.686;23.300;2023-05-23T17:02:52;94192.66;;;23.81;31.08
43217;BME280;60511;42.686;23.300;2023-05-23T17:04:52;94271.00;;;24.34;31.00
43217;BME280;60511;42.686;23.300;2023-05-23T17:06:56;94337.28;;;24.78;31.00
43217;BME280;60511;42.686;23.300;2023-05-23T17:08:56;94367.63;;;24.94;30.97
43217;BME280;60511;42.686;23.300;2023-05-23T17:10:57;94284.56;;;24.38;31.39
43217;BME280;60511;42.686;23.300;2023-05-23T17:12:57;94320.81;;;24.60;31.56
43217;BME280;60511;42.686;23.300;2023-05-23T17:14:58;94303.50;;;24.38;31.37
43217;BME280;60511;42.686;23.300;2023-05-23T17:16:58;94374.88;;;24.86;31.75
43217;BME280;60511;42.686;23.300;2023-05-23T17:18:59;94289.47;;;24.29;31.64
43217;BME280;60511;42.686;23.300;2023-05-23T17:21:00;94337.03;;;24.60;31.86
43217;BME280;60511;42.686;23.300;2023-05-23T17:23:00;94367.00;;;24.74;31.79
43217;BME280;60511;42.686;23.300;2023-05-23T17:25:02;94326.22;;;24.33;32.16
43217;BME280;60511;42.686;23.300;2023-05-23T17:27:02;94226.97;;;23.77;31.73
43217;BME280;60511;42.686;23.300;2023-05-23T17:29:03;94245.63;;;23.85;32.16